Time;durP1;ratioP1;P1;durP2;ratioP2;P2;SDS_P1;SDS_P2;PMS_P1;PMS_P2;Temp;Humidity;BMP_temperature;BMP_pressure;BME280_temperature;BME280_humidity;BME280_pressure;Samples;Min_cycle;Max_cycle;Signal;HPM_P1;HPM_P2
2020/12/28 00:01:36;;;;;;;7.68;3.47;;;8.10;72.60;;;;;;4956216;29;20452;-49
2020/12/28 00:04:02;;;;;;;6.47;3.10;;;8.10;72.50;;;;;;4956246;29;20046;-49
2020/12/28 00:06:27;;;;;;;4.35;2.70;;;8.10;72.50;;;;;;4956166;29;20031;-49
2020/12/28 00:08:53;;;;;;;5.70;3.33;;;8.10;72.50;;;;;;4967858;28;20341;-49
2020/12/28 00:11:19;;;;;;;3.92;2.58;;;8.10;72.60;;;;;;4975212;28;20040;-49
2020/12/28 00:13:46;;;;;;;5.43;3.38;;;8.10;72.70;;;;;;4975723;28;20035;-49
2020/12/28 00:16:15;;;;;;;4.78;2.83;;;8.10;73.60;;;;;;4975502;28;20022;-49
2020/12/28 00:18:41;;;;;;;5.18;2.55;;;8.10;72.80;;;;;;4975459;28;20357;-49
2020/12/28 00:21:07;;;;;;;8.63;3.45;;;8.10;72.70;;;;;;4975565;28;20081;-49
2020/12/28 00:23:33;;;;;;;5.05;3.08;;;8.10;73.00;;;;;;4975217;28;20415;-49
2020/12/28 00:25:59;;;;;;;4.97;3.13;;;8.10;72.80;;;;;;4975455;28;20069;-49
2020/12/28 00:28:24;;;;;;;6.40;2.85;;;8.10;72.80;;;;;;4975205;28;20033;-48
2020/12/28 00:30:50;;;;;;;11.45;3.90;;;8.10;72.80;;;;;;4970407;28;20023;-49
2020/12/28 00:33:16;;;;;;;5.93;3.20;;;8.10;73.00;;;;;;4955533;29;20449;-49
2020/12/28 00:35:43;;;;;;;4.25;2.75;;;8.10;73.10;;;;;;4955000;28;20054;-51
2020/12/28 00:38:09;;;;;;;9.18;3.05;;;8.10;73.10;;;;;;4955770;29;20529;-52
2020/12/28 00:40:35;;;;;;;8.43;3.22;;;8.10;73.10;;;;;;4955761;29;20457;-51
2020/12/28 00:43:00;;;;;;;7.93;2.40;;;8.10;73.00;;;;;;4955519;29;20031;-51
2020/12/28 00:45:26;;;;;;;7.22;3.55;;;8.10;73.00;;;;;;4955305;29;20061;-48
2020/12/28 00:47:52;;;;;;;5.10;2.95;;;8.10;73.10;;;;;;4955750;29;20050;-49
2020/12/28 00:50:17;;;;;;;8.05;2.75;;;8.10;73.20;;;;;;4955286;29;20019;-49
2020/12/28 00:52:43;;;;;;;5.32;3.42;;;8.10;73.10;;;;;;4951789;29;20357;-49
2020/12/28 00:55:08;;;;;;;5.75;3.35;;;8.10;73.10;;;;;;4936193;29;20035;-49
2020/12/28 00:57:34;;;;;;;7.50;3.05;;;8.10;73.30;;;;;;4936478;29;20023;-49
2020/12/28 00:59:59;;;;;;;5.90;3.20;;;8.10;73.20;;;;;;4949726;29;20031;-49
2020/12/28 01:02:25;;;;;;;11.30;3.20;;;8.10;73.90;;;;;;4954900;28;20054;-49
2020/12/28 01:04:51;;;;;;;9.60;3.92;;;8.10;73.40;;;;;;4955173;29;20113;-49
2020/12/28 01:07:16;;;;;;;6.40;2.80;;;8.10;73.30;;;;;;4954972;29;20075;-49
2020/12/28 01:09:42;;;;;;;6.80;3.38;;;8.10;73.40;;;;;;4973351;28;20027;-49
2020/12/28 01:12:08;;;;;;;9.02;3.25;;;8.10;73.40;;;;;;4974016;28;20130;-49
2020/12/28 01:14:33;;;;;;;4.95;3.17;;;8.10;73.30;;;;;;4974418;28;20043;-49
2020/12/28 01:16:59;;;;;;;5.72;2.55;;;8.10;73.40;;;;;;4974261;28;20050;-48
2020/12/28 01:19:24;;;;;;;8.88;3.55;;;8.10;73.40;;;;;;4974213;28;20077;-49
2020/12/28 01:21:50;;;;;;;5.32;3.08;;;8.10;73.40;;;;;;4974106;28;20030;-49
2020/12/28 01:24:16;;;;;;;6.50;2.83;;;8.10;73.40;;;;;;4974277;28;20077;-49
2020/12/28 01:26:43;;;;;;;5.75;3.75;;;8.10;73.50;;;;;;4974202;28;20077;-49
2020/12/28 01:29:09;;;;;;;9.77;3.55;;;8.10;73.50;;;;;;4974410;28;20031;-48
2020/12/28 01:31:35;;;;;;;8.00;3.53;;;8.10;73.50;;;;;;4962880;28;20357;-49
2020/12/28 01:34:01;;;;;;;7.97;3.63;;;8.10;73.60;;;;;;4954590;29;20119;-49
2020/12/28 01:36:26;;;;;;;7.93;3.42;;;8.10;73.60;;;;;;4954502;29;20058;-49
2020/12/28 01:38:52;;;;;;;10.20;3.72;;;8.10;73.60;;;;;;4955088;29;20033;-49
2020/12/28 01:41:17;;;;;;;6.00;3.53;;;8.10;73.60;;;;;;4954469;29;20071;-49
2020/12/28 01:43:43;;;;;;;7.93;3.30;;;8.10;73.50;;;;;;4954665;29;20050;-49
2020/12/28 01:46:10;;;;;;;6.45;3.28;;;8.10;73.70;;;;;;4954538;29;20034;-49
2020/12/28 01:48:36;;;;;;;6.07;3.80;;;8.10;73.70;;;;;;4953798;28;20078;-49
2020/12/28 01:51:03;;;;;;;6.25;3.83;;;8.10;73.70;;;;;;4954504;29;20472;-49
2020/12/28 01:53:29;;;;;;;5.90;3.30;;;8.10;73.70;;;;;;4947967;29;20035;-49
2020/12/28 01:56:05;;;;;;;7.60;3.70;;;8.10;73.70;;;;;;4954463;29;20038;-49
2020/12/28 01:58:31;;;;;;;7.82;3.63;;;8.10;73.70;;;;;;4953572;28;20465;-49
2020/12/28 02:00:58;;;;;;;7.72;3.53;;;8.10;73.60;;;;;;4953174;28;20042;-49
2020/12/28 02:03:25;;;;;;;5.22;3.58;;;8.10;73.80;;;;;;4942844;29;20043;-49
2020/12/28 02:05:52;;;;;;;6.20;3.30;;;8.10;73.80;;;;;;4940677;29;20034;-49
2020/12/28 02:08:18;;;;;;;5.47;2.88;;;8.10;73.90;;;;;;4944154;28;20095;-49
2020/12/28 02:10:44;;;;;;;6.63;3.70;;;8.10;73.80;;;;;;4973874;28;20527;-49
2020/12/28 02:13:10;;;;;;;6.05;3.00;;;8.10;73.90;;;;;;4973771;28;20035;-49
2020/12/28 02:15:35;;;;;;;10.60;3.40;;;8.10;73.70;;;;;;4973197;28;20031;-49
2020/12/28 02:18:02;;;;;;;6.85;3.47;;;8.10;73.90;;;;;;4973427;28;20119;-49
2020/12/28 02:20:27;;;;;;;7.53;3.35;;;8.10;73.70;;;;;;4973693;28;20035;-49
2020/12/28 02:22:53;;;;;;;11.25;3.45;;;8.10;73.90;;;;;;4973289;28;20027;-49
2020/12/28 02:25:18;;;;;;;7.85;3.70;;;8.10;73.80;;;;;;4973638;28;20026;-49
2020/12/28 02:27:44;;;;;;;7.15;3.65;;;8.10;73.90;;;;;;4973734;28;20219;-49
2020/12/28 02:30:10;;;;;;;5.68;3.15;;;8.10;73.90;;;;;;4973647;28;20102;-49
2020/12/28 02:32:35;;;;;;;5.43;3.72;;;8.10;74.70;;;;;;4953813;28;20070;-49
2020/12/28 02:35:01;;;;;;;8.10;3.67;;;8.10;73.90;;;;;;4954192;29;20050;-49
2020/12/28 02:37:26;;;;;;;6.07;3.30;;;8.10;73.80;;;;;;4954274;29;20046;-49
2020/12/28 02:39:52;;;;;;;6.88;3.75;;;8.10;73.90;;;;;;4954331;29;20413;-49
2020/12/28 02:42:18;;;;;;;9.15;3.85;;;8.10;74.00;;;;;;4936273;29;20039;-48
2020/12/28 02:44:44;;;;;;;5.28;3.53;;;8.10;74.00;;;;;;4954183;29;20028;-49
2020/12/28 02:47:09;;;;;;;5.30;3.67;;;8.10;74.20;;;;;;4954197;29;20069;-49
2020/12/28 02:49:35;;;;;;;7.00;3.55;;;8.10;74.10;;;;;;4954167;29;20544;-49
2020/12/28 02:52:00;;;;;;;7.28;3.40;;;8.10;74.20;;;;;;4953638;29;20063;-49
2020/12/28 02:54:26;;;;;;;5.55;3.47;;;8.10;74.20;;;;;;4937292;29;20473;-49
2020/12/28 02:56:52;;;;;;;6.43;3.42;;;8.10;74.20;;;;;;4934729;29;20445;-49
2020/12/28 02:59:17;;;;;;;7.22;2.88;;;8.10;74.20;;;;;;4944273;29;20467;-49
2020/12/28 03:01:43;;;;;;;6.95;3.42;;;8.10;74.20;;;;;;4956873;29;20027;-49
2020/12/28 03:04:09;;;;;;;7.38;3.83;;;8.10;74.30;;;;;;4957603;29;20433;-49
2020/12/28 03:06:35;;;;;;;7.55;3.78;;;8.10;74.20;;;;;;4957473;29;20110;-49
2020/12/28 03:09:00;;;;;;;6.85;3.80;;;8.10;74.30;;;;;;4969931;28;20117;-48
2020/12/28 03:11:26;;;;;;;7.78;3.58;;;8.10;74.30;;;;;;4976650;28;20029;-49
2020/12/28 03:13:51;;;;;;;6.72;3.63;;;8.10;74.40;;;;;;4976384;28;20485;-49
2020/12/28 03:16:17;;;;;;;7.18;3.35;;;8.10;74.40;;;;;;4959110;28;20057;-49
2020/12/28 03:18:43;;;;;;;7.13;3.17;;;8.10;74.30;;;;;;4956442;28;20087;-49
2020/12/28 03:21:08;;;;;;;5.40;3.40;;;8.10;74.40;;;;;;4957356;29;20102;-49
2020/12/28 03:23:34;;;;;;;10.70;4.30;;;8.10;74.40;;;;;;4956864;29;20062;-49
2020/12/28 03:25:59;;;;;;;11.25;3.53;;;8.10;74.30;;;;;;4946753;28;20066;-51
2020/12/28 03:28:25;;;;;;;7.03;3.83;;;8.10;73.70;;;;;;4961694;28;20030;-49
2020/12/28 03:30:51;;;;;;;6.55;3.10;;;8.10;74.40;;;;;;4944204;28;20023;-49
2020/12/28 03:33:16;;;;;;;8.70;3.60;;;8.10;74.40;;;;;;4956797;29;20326;-49
2020/12/28 03:35:43;;;;;;;6.55;3.65;;;8.10;74.40;;;;;;4956902;29;20038;-49
2020/12/28 03:38:09;;;;;;;7.45;3.65;;;8.10;74.40;;;;;;4939678;29;20031;-49
2020/12/28 03:40:35;;;;;;;9.68;3.50;;;8.10;74.60;;;;;;4956724;29;20102;-49
2020/12/28 03:43:00;;;;;;;8.25;3.92;;;8.10;74.60;;;;;;4956672;29;20413;-49
2020/12/28 03:45:26;;;;;;;9.60;4.10;;;8.10;74.60;;;;;;4956916;29;20471;-49
2020/12/28 03:47:52;;;;;;;6.00;3.20;;;8.10;74.40;;;;;;4956030;29;20448;-49
2020/12/28 03:50:18;;;;;;;7.15;3.47;;;8.10;74.60;;;;;;4937624;29;20039;-49
2020/12/28 03:52:43;;;;;;;10.00;3.85;;;8.10;74.60;;;;;;4943043;29;20059;-49
2020/12/28 03:55:09;;;;;;;6.75;3.30;;;8.00;74.50;;;;;;4937477;29;20521;-49
2020/12/28 03:57:35;;;;;;;10.98;3.85;;;8.10;74.70;;;;;;4936821;29;20030;-49
2020/12/28 04:00:01;;;;;;;7.03;3.50;;;8.10;74.60;;;;;;4949810;29;20539;-49
2020/12/28 04:02:26;;;;;;;7.75;3.47;;;8.10;74.60;;;;;;4937662;29;20126;-49
2020/12/28 04:04:52;;;;;;;4.30;2.65;;;8.10;74.50;;;;;;4956088;29;20030;-49
2020/12/28 04:07:19;;;;;;;8.30;3.30;;;8.10;74.70;;;;;;4955798;29;20038;-49
2020/12/28 04:09:45;;;;;;;10.27;3.90;;;8.10;74.80;;;;;;4973801;28;20027;-49
2020/12/28 04:12:11;;;;;;;9.50;3.50;;;8.10;74.60;;;;;;4974627;28;20185;-49
2020/12/28 04:14:36;;;;;;;6.85;3.55;;;8.10;74.70;;;;;;4975493;28;20035;-49
2020/12/28 04:17:02;;;;;;;8.45;4.20;;;8.10;74.70;;;;;;4975673;28;20113;-49
2020/12/28 04:19:27;;;;;;;7.85;3.55;;;8.10;74.60;;;;;;4975322;28;20031;-49
2020/12/28 04:21:53;;;;;;;7.90;3.63;;;8.10;74.50;;;;;;4975155;28;20030;-49
2020/12/28 04:24:19;;;;;;;8.13;3.22;;;8.10;74.80;;;;;;4975363;28;20169;-49
2020/12/28 04:26:45;;;;;;;7.97;3.92;;;8.10;74.70;;;;;;4975325;28;20073;-49
2020/12/28 04:29:11;;;;;;;7.57;3.70;;;8.10;74.80;;;;;;4972885;28;21469;-49
2020/12/28 04:31:38;;;;;;;12.18;4.22;;;8.10;74.70;;;;;;4955608;28;20027;-49
2020/12/28 04:34:04;;;;;;;7.38;3.67;;;8.10;74.80;;;;;;4956031;29;20075;-49
2020/12/28 04:36:31;;;;;;;8.32;3.53;;;8.10;74.90;;;;;;4955626;29;20023;-49
2020/12/28 04:38:56;;;;;;;7.82;4.10;;;8.10;75.00;;;;;;4955919;29;20449;-49
2020/12/28 04:41:22;;;;;;;6.22;3.33;;;8.10;75.00;;;;;;4955639;29;20078;-49
2020/12/28 04:43:48;;;;;;;9.32;3.60;;;8.10;75.90;;;;;;4955923;29;20023;-49
2020/12/28 04:46:14;;;;;;;9.95;4.45;;;8.10;75.00;;;;;;4955786;29;20450;-49
2020/12/28 04:48:40;;;;;;;5.03;2.72;;;8.10;75.00;;;;;;4955723;29;20491;-49
2020/12/28 04:51:06;;;;;;;7.80;3.85;;;8.10;75.20;;;;;;4955965;29;20054;-48
2020/12/28 04:53:32;;;;;;;4.40;2.42;;;8.10;75.10;;;;;;4949051;29;20468;-49
2020/12/28 04:55:58;;;;;;;5.60;3.00;;;8.10;75.10;;;;;;4955316;29;20055;-49
2020/12/28 04:58:24;;;;;;;10.00;3.72;;;8.10;75.10;;;;;;4955237;29;20098;-49
2020/12/28 05:01:00;;;;;;;6.18;2.78;;;8.10;75.10;;;;;;4955767;29;20031;-49
2020/12/28 05:03:27;;;;;;;8.25;3.45;;;8.10;75.00;;;;;;4954799;29;20492;-49
2020/12/28 05:05:53;;;;;;;7.88;3.70;;;8.10;75.20;;;;;;4954869;29;20038;-49
2020/12/28 05:08:19;;;;;;;7.50;3.78;;;8.10;75.10;;;;;;4962134;28;20353;-48
2020/12/28 05:10:45;;;;;;;7.95;3.75;;;8.10;75.00;;;;;;4974804;28;20058;-49
2020/12/28 05:13:11;;;;;;;10.80;4.05;;;8.10;75.00;;;;;;4974079;28;20062;-48
2020/12/28 05:15:51;;;;;;;11.02;4.70;;;8.10;75.10;;;;;;4974267;28;20440;-48
2020/12/28 05:18:18;;;;;;;10.35;4.18;;;8.10;75.00;;;;;;4974203;28;20400;-49
2020/12/28 05:20:46;;;;;;;9.13;4.15;;;8.10;75.00;;;;;;4974497;28;20452;-49
2020/12/28 05:23:13;;;;;;;10.15;4.18;;;8.10;75.10;;;;;;4973950;28;20114;-49
2020/12/28 05:25:42;;;;;;;8.35;3.80;;;8.10;75.00;;;;;;4974320;28;20019;-48
2020/12/28 05:28:09;;;;;;;9.40;3.55;;;8.10;75.10;;;;;;4974339;28;20389;-48
2020/12/28 05:30:35;;;;;;;8.70;4.00;;;8.10;75.00;;;;;;4960302;28;20073;-49
2020/12/28 05:33:04;;;;;;;7.53;3.58;;;8.10;75.10;;;;;;4954226;29;20466;-48
2020/12/28 05:35:32;;;;;;;10.07;3.97;;;8.10;75.10;;;;;;4955039;29;20067;-49
2020/12/28 05:38:00;;;;;;;10.00;3.63;;;8.10;75.20;;;;;;4955008;29;20274;-49
2020/12/28 05:40:26;;;;;;;6.20;3.42;;;8.10;75.10;;;;;;4954603;28;20029;-48
2020/12/28 05:42:53;;;;;;;5.20;3.28;;;8.10;75.10;;;;;;4954467;29;20019;-49
2020/12/28 05:45:19;;;;;;;9.20;3.35;;;8.10;75.20;;;;;;4955082;29;20026;-49
2020/12/28 05:47:49;;;;;;;10.82;3.65;;;8.10;75.10;;;;;;4954583;29;20027;-49
2020/12/28 05:50:20;;;;;;;7.38;3.47;;;8.10;75.10;;;;;;4954726;29;20074;-49
2020/12/28 05:52:57;;;;;;;8.98;3.55;;;8.10;75.10;;;;;;4948197;29;20050;-49
2020/12/28 05:55:28;;;;;;;6.75;3.78;;;8.10;75.00;;;;;;4954592;29;20373;-49
2020/12/28 05:57:56;;;;;;;13.35;3.60;;;8.10;75.20;;;;;;4954302;29;20051;-49
2020/12/28 06:00:22;;;;;;;7.35;3.63;;;8.10;75.20;;;;;;4954660;29;20102;-48
2020/12/28 06:02:48;;;;;;;10.75;2.95;;;8.10;75.30;;;;;;4954009;29;20031;-49
2020/12/28 06:05:19;;;;;;;6.82;3.20;;;8.10;75.10;;;;;;4954615;29;20445;-49
2020/12/28 06:07:46;;;;;;;7.93;3.65;;;8.10;75.30;;;;;;4957389;28;20023;-49
2020/12/28 06:10:13;;;;;;;9.00;4.13;;;8.10;75.20;;;;;;4973841;28;20102;-48
2020/12/28 06:12:39;;;;;;;6.50;3.85;;;8.10;75.30;;;;;;4973471;28;20519;-49
2020/12/28 06:15:21;;;;;;;7.93;4.10;;;8.10;75.80;;;;;;4973468;28;20043;-49
2020/12/28 06:17:47;;;;;;;9.50;3.42;;;8.10;75.70;;;;;;4973830;28;20034;-49
2020/12/28 06:20:12;;;;;;;5.70;3.22;;;8.10;75.50;;;;;;4973758;28;20284;-49
2020/12/28 06:22:39;;;;;;;6.20;3.88;;;8.10;75.60;;;;;;4973472;28;20086;-49
2020/12/28 06:25:07;;;;;;;2.80;2.08;;;8.10;75.50;;;;;;4973231;28;20026;-48
2020/12/28 06:27:34;;;;;;;7.30;4.03;;;8.10;75.70;;;;;;4973649;28;20334;-49
2020/12/28 06:30:10;;;;;;;8.02;3.47;;;8.10;75.50;;;;;;4964298;28;20027;-48
2020/12/28 06:32:37;;;;;;;9.55;3.58;;;8.10;75.60;;;;;;4954034;29;20027;-49
2020/12/28 06:35:06;;;;;;;7.15;3.78;;;8.10;75.50;;;;;;4957399;29;20063;-48
2020/12/28 06:37:41;;;;;;;8.48;3.63;;;8.10;75.70;;;;;;4958204;29;20030;-49
2020/12/28 06:40:08;;;;;;;10.80;3.95;;;8.10;75.70;;;;;;4958219;29;20319;-49
2020/12/28 06:42:34;;;;;;;4.38;2.80;;;8.10;75.60;;;;;;4957725;29;20491;-48
2020/12/28 06:45:11;;;;;;;6.63;3.92;;;8.10;75.60;;;;;;4957940;29;20019;-48
2020/12/28 06:47:38;;;;;;;6.38;3.67;;;8.10;75.70;;;;;;4958223;29;20031;-49
2020/12/28 06:50:03;;;;;;;11.55;4.28;;;8.10;75.60;;;;;;4957559;28;20402;-48
2020/12/28 06:52:29;;;;;;;8.00;3.38;;;8.10;75.60;;;;;;4956099;29;20038;-48
2020/12/28 06:54:55;;;;;;;8.27;3.10;;;8.10;75.80;;;;;;4938544;29;20035;-49
2020/12/28 06:57:23;;;;;;;8.63;4.10;;;8.10;75.70;;;;;;4938522;29;20046;-49
2020/12/28 06:59:49;;;;;;;5.68;3.30;;;8.10;75.80;;;;;;4950264;29;20027;-49
2020/12/28 07:02:16;;;;;;;7.97;4.10;;;8.10;75.90;;;;;;4957220;29;20334;-49
2020/12/28 07:04:42;;;;;;;7.93;3.63;;;8.10;76.50;;;;;;4957506;29;20027;-49
2020/12/28 07:07:09;;;;;;;7.18;4.03;;;8.10;76.50;;;;;;4957729;29;20031;-49
2020/12/28 07:09:35;;;;;;;6.65;3.75;;;8.10;76.60;;;;;;4974461;28;20034;-48
2020/12/28 07:12:07;;;;;;;8.00;4.15;;;8.10;76.20;;;;;;4976638;28;20357;-48
2020/12/28 07:14:33;;;;;;;7.78;3.80;;;8.10;76.50;;;;;;4976442;28;20069;-49
2020/12/28 07:16:59;;;;;;;5.43;3.85;;;8.10;76.70;;;;;;4976413;28;20106;-48
2020/12/28 07:19:25;;;;;;;6.90;3.75;;;8.10;76.40;;;;;;4976528;28;20121;-49
2020/12/28 07:21:50;;;;;;;8.52;3.85;;;8.10;76.40;;;;;;4955542;28;20039;-49
2020/12/28 07:24:16;;;;;;;2.20;1.98;;;8.10;76.30;;;;;;4945661;29;20031;-49
2020/12/28 07:26:47;;;;;;;8.25;4.25;;;8.10;76.30;;;;;;4957320;29;20348;-49
2020/12/28 07:29:14;;;;;;;7.05;3.47;;;8.10;76.40;;;;;;4951544;29;20027;-49
2020/12/28 07:31:41;;;;;;;9.88;3.95;;;8.10;76.20;;;;;;4956506;29;20468;-48
2020/12/28 07:34:07;;;;;;;6.63;3.85;;;8.10;76.60;;;;;;4957068;29;20035;-49
2020/12/28 07:36:34;;;;;;;6.97;4.05;;;8.10;76.50;;;;;;4957191;29;20524;-49
2020/12/28 07:39:01;;;;;;;8.68;4.05;;;8.10;76.20;;;;;;4956940;29;20037;-49
2020/12/28 07:41:27;;;;;;;7.13;3.78;;;8.10;76.40;;;;;;4956536;29;20468;-49
2020/12/28 07:43:54;;;;;;;5.10;2.70;;;8.10;76.40;;;;;;4956993;29;20031;-48
2020/12/28 07:46:34;;;;;;;6.28;3.75;;;8.10;76.40;;;;;;4955495;28;20074;-49
2020/12/28 07:49:25;;;;;;;7.40;3.78;;;8.10;76.50;;;;;;4957338;29;20036;-49
2020/12/28 07:52:10;;;;;;;6.95;3.92;;;8.10;76.60;;;;;;4954308;29;20453;-48
2020/12/28 07:54:55;;;;;;;6.90;3.70;;;8.10;76.40;;;;;;4955262;29;20049;-49
2020/12/28 07:57:33;;;;;;;5.75;2.60;;;8.10;76.50;;;;;;4956542;29;20114;-48
2020/12/28 08:00:08;;;;;;;8.60;3.33;;;8.10;76.40;;;;;;4956646;29;20109;-48
2020/12/28 08:03:10;;;;;;;4.97;3.00;;;8.10;76.40;;;;;;4956291;29;20046;-49
2020/12/28 08:05:36;;;;;;;5.90;3.30;;;8.10;76.50;;;;;;4956366;29;20030;-49
2020/12/28 08:08:02;;;;;;;4.47;3.00;;;8.10;76.50;;;;;;4961004;28;20027;-49
2020/12/28 08:10:28;;;;;;;8.07;3.85;;;8.10;76.60;;;;;;4975755;28;20027;-49
2020/12/28 08:12:58;;;;;;;5.18;3.10;;;8.10;76.40;;;;;;4974368;28;20095;-48
2020/12/28 08:15:28;;;;;;;5.38;3.45;;;8.10;76.50;;;;;;4954719;29;20066;-49
2020/12/28 08:18:08;;;;;;;5.63;3.60;;;8.20;76.60;;;;;;4955098;29;20034;-49
2020/12/28 08:20:35;;;;;;;6.40;3.72;;;8.20;76.70;;;;;;4955406;29;20063;-49
2020/12/28 08:23:00;;;;;;;7.78;3.72;;;8.10;76.70;;;;;;4955929;29;20030;-48
2020/12/28 08:25:31;;;;;;;13.45;3.63;;;8.20;76.70;;;;;;4955962;29;20024;-49
2020/12/28 08:27:58;;;;;;;5.60;3.25;;;8.20;76.60;;;;;;4956588;29;20061;-49
2020/12/28 08:30:31;;;;;;;6.28;3.28;;;8.20;76.80;;;;;;4955834;29;20036;-49
2020/12/28 08:32:59;;;;;;;4.72;2.65;;;8.20;76.80;;;;;;4955405;29;20449;-48
2020/12/28 08:35:26;;;;;;;3.88;2.80;;;8.20;76.70;;;;;;4955792;29;20567;-49
2020/12/28 08:37:52;;;;;;;8.00;3.92;;;8.20;77.00;;;;;;4955765;29;20030;-49
2020/12/28 08:40:21;;;;;;;4.60;2.83;;;8.20;76.80;;;;;;4956112;29;20452;-48
2020/12/28 08:42:54;;;;;;;5.22;3.15;;;8.20;76.90;;;;;;4955447;29;20035;-49
2020/12/28 08:45:22;;;;;;;6.88;3.70;;;8.20;77.00;;;;;;4955642;29;20023;-49
2020/12/28 08:47:53;;;;;;;7.10;3.88;;;8.20;77.00;;;;;;4955465;29;20089;-49
2020/12/28 08:50:19;;;;;;;6.00;3.30;;;8.20;77.00;;;;;;4955734;29;20107;-48
2020/12/28 08:52:49;;;;;;;5.78;3.15;;;8.20;77.00;;;;;;4948832;29;20423;-49
2020/12/28 08:55:15;;;;;;;;;;;8.20;77.10;;;;;;4956119;29;20046;-49
2020/12/28 08:57:41;;;;;;;6.20;3.33;;;8.20;77.10;;;;;;4955164;28;19910;-48
2020/12/28 09:00:06;;;;;;;4.25;2.60;;;8.20;77.10;;;;;;4954810;29;20027;-49
2020/12/28 09:02:32;;;;;;;6.13;3.10;;;8.20;77.10;;;;;;4955147;28;20035;-49
2020/12/28 09:04:58;;;;;;;7.50;3.65;;;8.20;77.00;;;;;;4955714;29;20327;-48
2020/12/28 09:07:24;;;;;;;5.63;3.03;;;8.20;77.20;;;;;;4937077;29;20028;-48
2020/12/28 09:09:51;;;;;;;10.55;3.63;;;8.20;77.20;;;;;;4955196;29;20117;-48
2020/12/28 09:12:17;;;;;;;3.95;3.00;;;8.20;77.40;;;;;;4954883;29;20069;-49
2020/12/28 09:14:43;;;;;;;7.80;3.60;;;8.20;77.40;;;;;;4955429;29;20378;-48
2020/12/28 09:17:09;;;;;;;7.90;4.10;;;8.20;77.30;;;;;;4954916;29;20031;-48
2020/12/28 09:19:35;;;;;;;5.95;3.35;;;8.20;77.40;;;;;;4955165;29;20027;-49
2020/12/28 09:22:01;;;;;;;10.00;3.45;;;8.20;77.50;;;;;;4954776;29;20035;-49
2020/12/28 09:24:27;;;;;;;7.35;3.72;;;8.20;77.30;;;;;;4955359;29;20030;-48
2020/12/28 09:26:56;;;;;;;3.97;2.40;;;8.20;77.50;;;;;;4954862;29;20034;-49
2020/12/28 09:29:21;;;;;;;4.60;3.03;;;8.20;77.60;;;;;;4950689;29;20023;-49
2020/12/28 09:31:47;;;;;;;8.80;4.32;;;8.20;77.50;;;;;;4935573;29;20460;-48
2020/12/28 09:34:13;;;;;;;9.40;4.60;;;8.20;77.70;;;;;;4935528;29;20040;-49
2020/12/28 09:36:39;;;;;;;7.68;4.28;;;8.20;77.60;;;;;;4935769;29;20047;-49
2020/12/28 09:39:05;;;;;;;18.10;4.32;;;8.20;77.60;;;;;;4935645;29;20087;-48
2020/12/28 09:41:31;;;;;;;6.60;3.65;;;8.20;77.60;;;;;;4935230;29;20040;-48
2020/12/28 09:43:57;;;;;;;6.75;3.30;;;8.20;77.70;;;;;;4935421;29;20035;-49
2020/12/28 09:46:22;;;;;;;8.98;3.88;;;8.20;77.70;;;;;;4935256;29;20115;-48
2020/12/28 09:48:49;;;;;;;7.03;3.67;;;8.20;77.80;;;;;;4935032;29;20038;-49
2020/12/28 09:51:15;;;;;;;7.35;3.55;;;8.20;77.70;;;;;;4935137;29;20035;-49
2020/12/28 09:53:42;;;;;;;7.57;4.28;;;8.30;77.80;;;;;;4929116;29;20040;-48
2020/12/28 09:56:08;;;;;;;4.90;3.35;;;8.30;77.30;;;;;;4935351;29;20453;-48
2020/12/28 09:58:34;;;;;;;7.50;3.45;;;8.30;77.90;;;;;;4937125;29;20024;-48
2020/12/28 10:01:00;;;;;;;4.60;3.13;;;8.30;78.10;;;;;;4954387;29;20504;-48
2020/12/28 10:03:26;;;;;;;7.85;3.78;;;8.30;77.40;;;;;;4948871;28;20044;-48
2020/12/28 10:05:53;;;;;;;9.80;3.58;;;8.30;77.60;;;;;;4944736;29;20027;-48
2020/12/28 10:08:19;;;;;;;19.13;4.85;;;8.30;77.80;;;;;;4952093;29;20353;-48
2020/12/28 10:10:44;;;;;;;8.05;3.92;;;8.30;77.60;;;;;;4938417;29;20042;-48
2020/12/28 10:13:11;;;;;;;9.45;3.70;;;8.30;77.00;;;;;;4950803;29;20449;-48
2020/12/28 10:15:37;;;;;;;11.10;4.63;;;8.30;77.50;;;;;;4950434;29;20442;-48
2020/12/28 10:18:28;;;;;;;8.90;3.85;;;8.30;77.60;;;;;;4952952;29;20102;-48
2020/12/28 10:20:54;;;;;;;9.57;3.95;;;8.40;77.70;;;;;;4950262;29;20432;-48
2020/12/28 10:23:20;;;;;;;6.93;3.45;;;8.40;77.80;;;;;;4952502;29;20027;-48
2020/12/28 10:25:45;;;;;;;9.93;3.95;;;8.40;77.90;;;;;;4952297;29;20031;-48
2020/12/28 10:28:11;;;;;;;5.35;3.25;;;8.40;77.90;;;;;;4950494;29;20020;-48
2020/12/28 10:30:37;;;;;;;6.05;3.35;;;8.40;78.10;;;;;;4951298;29;20038;-48
2020/12/28 10:33:02;;;;;;;4.22;2.90;;;8.40;78.00;;;;;;4951958;29;20023;-48
2020/12/28 10:35:28;;;;;;;5.93;3.80;;;8.40;77.90;;;;;;4939722;29;20489;-48
2020/12/28 10:37:55;;;;;;;7.55;3.97;;;8.40;77.90;;;;;;4951661;29;20023;-51
2020/12/28 10:40:21;;;;;;;8.40;4.15;;;8.40;77.90;;;;;;4952311;29;20043;-51
2020/12/28 10:42:46;;;;;;;4.25;3.42;;;8.40;78.10;;;;;;4948563;29;20030;-51
2020/12/28 10:45:12;;;;;;;4.95;3.15;;;8.40;78.20;;;;;;4952506;28;20031;-51
2020/12/28 10:47:38;;;;;;;5.40;3.38;;;8.40;77.90;;;;;;4952709;29;20023;-51
2020/12/28 10:50:04;;;;;;;6.40;3.75;;;8.40;78.30;;;;;;4938916;29;20366;-51
2020/12/28 10:52:29;;;;;;;9.60;3.55;;;8.40;78.30;;;;;;4932674;29;20036;-51
2020/12/28 10:54:55;;;;;;;5.45;3.50;;;8.40;78.30;;;;;;4943477;29;20532;-51
2020/12/28 10:57:21;;;;;;;6.15;3.50;;;8.40;78.30;;;;;;4933864;29;20028;-51
2020/12/28 10:59:47;;;;;;;4.40;2.78;;;8.40;78.10;;;;;;4944716;29;20476;-51
2020/12/28 11:02:12;;;;;;;7.20;4.60;;;8.50;78.40;;;;;;4953299;28;20400;-51
2020/12/28 11:04:38;;;;;;;7.43;4.20;;;8.40;78.40;;;;;;4953890;29;20519;-51
2020/12/28 11:07:03;;;;;;;7.78;4.03;;;8.50;78.40;;;;;;4938631;28;20036;-50
2020/12/28 11:09:29;;;;;;;7.57;4.57;;;8.50;78.40;;;;;;4948948;29;20035;-51
2020/12/28 11:11:55;;;;;;;8.85;3.67;;;8.50;78.40;;;;;;4934797;29;20094;-50
2020/12/28 11:14:21;;;;;;;5.88;3.47;;;8.40;78.20;;;;;;4934832;29;20368;-51
2020/12/28 11:16:47;;;;;;;8.25;3.95;;;8.40;78.40;;;;;;4934866;29;20031;-51
2020/12/28 11:19:13;;;;;;;9.98;4.00;;;8.50;78.70;;;;;;4934651;29;20032;-50
2020/12/28 11:21:39;;;;;;;9.07;4.93;;;8.50;78.40;;;;;;4937881;29;20030;-51
2020/12/28 11:24:04;;;;;;;13.20;5.13;;;8.50;78.50;;;;;;4937912;29;20032;-51
2020/12/28 11:26:32;;;;;;;12.77;4.97;;;8.50;78.30;;;;;;4937700;29;20027;-51
2020/12/28 11:28:59;;;;;;;9.88;4.90;;;8.50;78.50;;;;;;4924778;29;20036;-51
2020/12/28 11:31:25;;;;;;;9.63;4.30;;;8.50;78.60;;;;;;4937768;29;20107;-50
2020/12/28 11:33:51;;;;;;;6.78;3.75;;;8.50;78.80;;;;;;4938249;29;20027;-51
2020/12/28 11:36:18;;;;;;;11.27;4.22;;;8.50;78.80;;;;;;4937496;29;20090;-51
2020/12/28 11:38:44;;;;;;;6.75;3.97;;;8.40;78.60;;;;;;4937982;29;20031;-51
2020/12/28 11:41:16;;;;;;;20.05;4.13;;;8.50;78.70;;;;;;4937907;29;20119;-48
2020/12/28 11:43:42;;;;;;;4.78;2.92;;;8.50;79.00;;;;;;4937783;29;20529;-48
2020/12/28 11:46:08;;;;;;;5.00;2.88;;;8.50;78.80;;;;;;4937596;29;20055;-48
2020/12/28 11:48:35;;;;;;;8.07;3.35;;;8.50;78.40;;;;;;4937782;29;20106;-48
2020/12/28 11:51:04;;;;;;;7.20;3.85;;;8.50;78.90;;;;;;4937305;29;20032;-48
2020/12/28 11:53:30;;;;;;;7.03;3.58;;;8.50;79.10;;;;;;4937103;29;20036;-48
2020/12/28 11:56:05;;;;;;;5.72;3.22;;;8.50;78.80;;;;;;4937759;29;20031;-48
2020/12/28 11:58:37;;;;;;;5.10;2.63;;;8.50;79.00;;;;;;4939076;29;20036;-48
2020/12/28 12:01:04;;;;;;;6.15;3.35;;;8.50;79.10;;;;;;4956591;29;20030;-48
2020/12/28 12:03:30;;;;;;;6.85;4.13;;;8.50;79.40;;;;;;4955789;29;20348;-48
2020/12/28 12:05:57;;;;;;;7.22;2.85;;;8.50;79.10;;;;;;4948095;29;20468;-48
2020/12/28 12:08:23;;;;;;;7.55;3.65;;;8.50;79.00;;;;;;4942988;29;20114;-48
2020/12/28 12:10:50;;;;;;;17.15;5.70;;;8.50;79.10;;;;;;4954515;29;20030;-48
2020/12/28 12:13:17;;;;;;;5.38;3.45;;;8.50;79.10;;;;;;4953755;29;20346;-48
2020/12/28 12:15:47;;;;;;;5.63;3.33;;;8.50;79.10;;;;;;4954095;29;20097;-48
2020/12/28 12:18:13;;;;;;;11.55;5.15;;;8.50;79.40;;;;;;4953546;29;20027;-48
2020/12/28 12:20:39;;;;;;;9.75;4.05;;;8.50;79.50;;;;;;4955207;29;20054;-48
2020/12/28 12:23:05;;;;;;;9.82;4.68;;;8.50;79.40;;;;;;4955654;29;20023;-48
2020/12/28 12:25:31;;;;;;;9.38;4.22;;;8.50;79.50;;;;;;4956115;29;20031;-48
2020/12/28 12:27:57;;;;;;;16.05;4.20;;;8.50;79.40;;;;;;4956289;29;20412;-48
2020/12/28 12:30:22;;;;;;;10.50;3.55;;;8.50;79.40;;;;;;4943033;29;20486;-48
2020/12/28 12:32:48;;;;;;;8.82;3.95;;;8.50;79.90;;;;;;4935516;29;20106;-48
2020/12/28 12:35:13;;;;;;;6.63;3.80;;;8.50;79.50;;;;;;4936021;29;20032;-48
2020/12/28 12:37:39;;;;;;;7.03;3.75;;;8.50;79.50;;;;;;4936662;29;20476;-48
2020/12/28 12:40:05;;;;;;;9.60;5.43;;;8.50;79.40;;;;;;4936344;29;20365;-48
2020/12/28 12:42:30;;;;;;;7.45;4.28;;;8.50;79.50;;;;;;4936091;29;20038;-48
2020/12/28 12:44:56;;;;;;;11.30;5.32;;;8.50;79.70;;;;;;4934729;29;20035;-48
2020/12/28 12:47:22;;;;;;;7.82;3.90;;;8.50;79.20;;;;;;4935868;29;20067;-48
2020/12/28 12:49:47;;;;;;;7.63;4.47;;;8.50;79.70;;;;;;4936121;29;20453;-48
2020/12/28 12:52:25;;;;;;;10.95;4.53;;;8.50;79.60;;;;;;4935803;29;20493;-48
2020/12/28 12:54:51;;;;;;;9.57;5.18;;;8.50;79.70;;;;;;4935892;29;20159;-48